Time;durP1;ratioP1;P1;durP2;ratioP2;P2;SDS_P1;SDS_P2;PMS_P1;PMS_P2;Temp;Humidity;BMP_temperature;BMP_pressure;BME280_temperature;BME280_humidity;BME280_pressure;Samples;Min_cycle;Max_cycle;Signal;HPM_P1;HPM_P2
2023/09/25 00:02:09;;;;;;;3.83;2.50;;;10.50;92.70;;;;;;4984061;28;20147;-72
2023/09/25 00:04:34;;;;;;;3.90;2.05;;;10.50;92.80;;;;;;4985195;28;20038;-72
2023/09/25 00:07:01;;;;;;;3.33;2.03;;;10.50;92.80;;;;;;4994126;28;20092;-72
2023/09/25 00:09:27;;;;;;;2.90;1.95;;;10.50;92.90;;;;;;4986169;28;20035;-72
2023/09/25 00:11:53;;;;;;;4.80;2.08;;;10.50;93.10;;;;;;4987498;28;20035;-72
2023/09/25 00:14:18;;;;;;;3.13;2.00;;;10.50;93.10;;;;;;4983090;28;20030;-72
2023/09/25 00:16:44;;;;;;;4.20;2.33;;;10.40;93.20;;;;;;4968559;28;20411;-72
2023/09/25 00:19:09;;;;;;;3.45;2.05;;;10.40;93.40;;;;;;4985236;28;20034;-72
2023/09/25 00:21:35;;;;;;;3.10;1.98;;;10.40;93.20;;;;;;4993295;28;20034;-72
2023/09/25 00:24:00;;;;;;;6.38;2.17;;;10.40;93.60;;;;;;4981742;28;20434;-73
2023/09/25 00:26:26;;;;;;;4.85;2.25;;;10.40;93.50;;;;;;4964877;28;20041;-74
2023/09/25 00:28:51;;;;;;;7.05;2.33;;;10.30;93.80;;;;;;4983759;28;20042;-72
2023/09/25 00:31:17;;;;;;;3.05;2.08;;;10.40;93.80;;;;;;4986155;28;20093;-72
2023/09/25 00:33:42;;;;;;;4.60;2.67;;;10.40;93.70;;;;;;4992794;28;20038;-72
2023/09/25 00:36:08;;;;;;;3.60;1.98;;;10.40;93.70;;;;;;4990158;28;20125;-73
2023/09/25 00:38:33;;;;;;;5.22;2.78;;;10.40;93.50;;;;;;4986981;28;20037;-72
2023/09/25 00:40:59;;;;;;;3.83;2.30;;;10.50;93.50;;;;;;4988548;28;20069;-72
2023/09/25 00:43:24;;;;;;;4.15;2.35;;;10.50;93.60;;;;;;4985601;28;20431;-73
2023/09/25 00:45:50;;;;;;;3.53;2.53;;;10.50;93.50;;;;;;4987666;28;20030;-72
2023/09/25 00:48:29;;;;;;;4.68;2.67;;;10.50;93.50;;;;;;4982442;28;20526;-72
2023/09/25 00:50:57;;;;;;;6.05;2.50;;;10.60;93.30;;;;;;4979684;28;20129;-72
2023/09/25 00:53:26;;;;;;;4.50;2.45;;;10.60;93.20;;;;;;4984198;28;20490;-72
2023/09/25 00:55:52;;;;;;;4.15;2.20;;;10.60;93.10;;;;;;4983561;28;20038;-72
2023/09/25 00:58:19;;;;;;;4.43;2.63;;;10.50;93.30;;;;;;4962648;28;20084;-73
2023/09/25 01:00:45;;;;;;;4.63;2.63;;;10.60;93.30;;;;;;4983573;28;20080;-73
2023/09/25 01:03:11;;;;;;;4.95;2.58;;;10.60;93.20;;;;;;4987845;28;20038;-73
2023/09/25 01:05:37;;;;;;;6.20;2.80;;;10.50;93.20;;;;;;4982162;28;20167;-72
2023/09/25 01:08:03;;;;;;;7.13;2.38;;;10.60;93.10;;;;;;4984666;28;20085;-72
2023/09/25 01:10:28;;;;;;;4.38;2.35;;;10.50;93.10;;;;;;4989622;28;20466;-72
2023/09/25 01:12:54;;;;;;;5.45;2.65;;;10.50;93.30;;;;;;4987970;28;20117;-72
2023/09/25 01:15:20;;;;;;;4.72;2.70;;;10.50;93.10;;;;;;4984023;28;20131;-73
2023/09/25 01:17:46;;;;;;;3.80;2.33;;;10.40;93.30;;;;;;4988290;28;20041;-72
2023/09/25 01:20:15;;;;;;;6.00;2.42;;;10.30;93.60;;;;;;4989519;28;20031;-72
2023/09/25 01:22:41;;;;;;;4.10;2.47;;;10.40;93.40;;;;;;4989181;28;20037;-72
2023/09/25 01:25:10;;;;;;;8.02;2.50;;;10.40;93.40;;;;;;4969977;28;20034;-72
2023/09/25 01:27:37;;;;;;;4.97;2.67;;;10.30;93.20;;;;;;4981586;28;20035;-72
2023/09/25 01:30:03;;;;;;;4.05;2.40;;;10.40;93.60;;;;;;4973953;28;20030;-72
2023/09/25 01:32:28;;;;;;;5.43;2.60;;;10.30;93.30;;;;;;4988184;28;20468;-73
2023/09/25 01:34:54;;;;;;;3.70;2.60;;;10.30;93.40;;;;;;4984919;28;20038;-72
2023/09/25 01:37:19;;;;;;;4.55;2.90;;;10.30;93.50;;;;;;4992625;28;20042;-74
2023/09/25 01:39:45;;;;;;;6.78;2.40;;;10.20;93.50;;;;;;4990037;28;20062;-72
2023/09/25 01:42:10;;;;;;;4.80;2.67;;;10.20;93.60;;;;;;4986448;28;20160;-73
2023/09/25 01:44:36;;;;;;;3.97;2.30;;;10.10;93.60;;;;;;4981376;28;20046;-72
2023/09/25 01:47:01;;;;;;;4.63;2.55;;;10.10;93.80;;;;;;4974305;28;20084;-72
2023/09/25 01:49:27;;;;;;;4.57;2.63;;;10.20;93.80;;;;;;4979999;28;20041;-72
2023/09/25 01:51:53;;;;;;;6.55;2.70;;;10.30;93.50;;;;;;4984139;28;20026;-72
2023/09/25 01:54:18;;;;;;;4.25;2.47;;;10.30;93.50;;;;;;4991544;28;20153;-72
2023/09/25 01:56:47;;;;;;;4.75;2.53;;;10.20;93.70;;;;;;4987396;28;20494;-72
2023/09/25 01:59:12;;;;;;;5.22;2.50;;;10.10;93.70;;;;;;4984702;28;20519;-72
2023/09/25 02:01:39;;;;;;;4.97;2.70;;;10.20;93.60;;;;;;4986708;28;20116;-72
2023/09/25 02:04:05;;;;;;;4.63;2.63;;;10.10;93.50;;;;;;4986918;28;20085;-72
2023/09/25 02:06:30;;;;;;;6.47;2.72;;;10.10;93.70;;;;;;4981959;28;20058;-72
2023/09/25 02:08:55;;;;;;;4.40;2.67;;;10.20;93.50;;;;;;4981535;28;20042;-74
2023/09/25 02:11:21;;;;;;;3.08;2.20;;;10.10;93.70;;;;;;4986658;28;20348;-72
2023/09/25 02:13:47;;;;;;;5.60;2.67;;;10.10;93.50;;;;;;4986329;28;20043;-73
2023/09/25 02:16:12;;;;;;;6.43;2.90;;;10.10;93.60;;;;;;4988218;28;20464;-72
2023/09/25 02:18:38;;;;;;;5.10;2.70;;;10.00;93.90;;;;;;4983584;28;20058;-74
2023/09/25 02:21:03;;;;;;;4.88;2.65;;;10.10;93.70;;;;;;4989382;28;20038;-72
2023/09/25 02:23:29;;;;;;;4.50;2.75;;;10.00;93.80;;;;;;4986109;28;20491;-72
2023/09/25 02:25:55;;;;;;;4.03;2.63;;;10.00;93.90;;;;;;4989433;28;20077;-72
2023/09/25 02:28:20;;;;;;;3.60;2.38;;;10.00;93.90;;;;;;4982972;28;20026;-72
2023/09/25 02:30:45;;;;;;;5.57;2.92;;;9.90;94.00;;;;;;4983011;28;20073;-74
2023/09/25 02:33:11;;;;;;;6.95;2.95;;;9.90;94.10;;;;;;4983345;28;20043;-73
2023/09/25 02:35:37;;;;;;;4.43;2.78;;;9.90;94.20;;;;;;4985416;28;20046;-72
2023/09/25 02:38:02;;;;;;;5.13;2.78;;;10.00;94.20;;;;;;4988133;28;20058;-73
2023/09/25 02:40:28;;;;;;;5.18;2.78;;;9.80;94.10;;;;;;4969748;28;20050;-73
2023/09/25 02:42:53;;;;;;;5.07;2.95;;;9.80;94.40;;;;;;4987994;28;20121;-72
2023/09/25 02:45:19;;;;;;;4.88;2.75;;;9.80;94.40;;;;;;4982448;28;20184;-72
2023/09/25 02:47:44;;;;;;;6.57;3.00;;;9.80;94.60;;;;;;4983583;28;20085;-72
2023/09/25 02:50:11;;;;;;;6.57;3.00;;;9.80;94.50;;;;;;4978967;28;20109;-72
2023/09/25 02:52:37;;;;;;;6.50;3.03;;;9.80;94.50;;;;;;4979944;28;20125;-72
2023/09/25 02:55:03;;;;;;;4.80;2.95;;;9.70;94.50;;;;;;4982495;28;20114;-74
2023/09/25 02:57:29;;;;;;;6.30;2.60;;;9.70;94.80;;;;;;4981296;28;20035;-72
2023/09/25 02:59:54;;;;;;;5.10;3.10;;;9.70;94.70;;;;;;4980110;28;20042;-73
2023/09/25 03:02:20;;;;;;;6.85;3.10;;;9.80;94.90;;;;;;4982833;28;20475;-73
2023/09/25 03:04:46;;;;;;;5.57;3.22;;;9.70;94.50;;;;;;4980845;28;20131;-72
2023/09/25 03:07:11;;;;;;;5.07;2.75;;;9.70;94.70;;;;;;4981001;28;20034;-75
2023/09/25 03:09:37;;;;;;;6.55;2.92;;;9.60;94.70;;;;;;4982246;28;20049;-72
2023/09/25 03:12:04;;;;;;;4.03;2.70;;;9.60;94.80;;;;;;4981300;28;20047;-73
2023/09/25 03:14:29;;;;;;;5.20;2.92;;;9.60;95.10;;;;;;4980360;28;20061;-74
2023/09/25 03:16:55;;;;;;;4.63;2.78;;;9.60;94.90;;;;;;4966629;28;20038;-72
2023/09/25 03:19:20;;;;;;;4.82;2.72;;;9.60;94.90;;;;;;4984964;28;20049;-73
2023/09/25 03:21:46;;;;;;;4.97;3.22;;;9.70;95.20;;;;;;4983186;28;20267;-72
2023/09/25 03:24:11;;;;;;;7.03;3.10;;;9.80;94.80;;;;;;4985822;28;20474;-73
2023/09/25 03:26:37;;;;;;;5.45;3.10;;;9.80;94.70;;;;;;4987763;28;20045;-72
2023/09/25 03:29:04;;;;;;;6.25;3.22;;;9.80;94.80;;;;;;4969999;28;20038;-73
2023/09/25 03:31:30;;;;;;;6.40;3.40;;;9.80;94.70;;;;;;4985049;28;20046;-72
2023/09/25 03:33:55;;;;;;;4.78;2.83;;;9.80;94.60;;;;;;4984712;28;20043;-72
2023/09/25 03:36:21;;;;;;;5.22;2.83;;;9.80;94.70;;;;;;4983866;28;20487;-75
2023/09/25 03:38:46;;;;;;;6.53;3.30;;;9.70;94.70;;;;;;4986858;28;20038;-73
2023/09/25 03:41:12;;;;;;;5.80;3.22;;;9.80;94.50;;;;;;4981076;28;20046;-72
2023/09/25 03:43:37;;;;;;;6.25;3.22;;;9.70;94.60;;;;;;4986594;28;20039;-73
2023/09/25 03:46:03;;;;;;;4.88;2.83;;;9.70;94.70;;;;;;4990566;28;20038;-72
2023/09/25 03:48:28;;;;;;;4.90;2.60;;;9.80;94.80;;;;;;4989844;28;20042;-74
2023/09/25 03:50:54;;;;;;;6.75;3.17;;;9.80;94.50;;;;;;4980451;28;20113;-72
2023/09/25 03:53:19;;;;;;;8.73;2.85;;;9.80;94.70;;;;;;4972245;28;20042;-73
2023/09/25 03:55:45;;;;;;;5.38;2.97;;;9.80;94.20;;;;;;4986259;28;20077;-73
2023/09/25 03:58:11;;;;;;;5.40;2.72;;;9.80;94.40;;;;;;4988062;28;20482;-72
2023/09/25 04:00:38;;;;;;;5.07;2.97;;;9.90;94.30;;;;;;4985993;28;20042;-72
2023/09/25 04:03:03;;;;;;;5.78;2.85;;;9.80;94.30;;;;;;4984283;28;21250;-73
2023/09/25 04:05:29;;;;;;;6.00;2.58;;;9.80;94.30;;;;;;4975550;28;20038;-72
2023/09/25 04:07:55;;;;;;;4.57;2.90;;;9.90;94.40;;;;;;4981183;28;20538;-72
2023/09/25 04:10:21;;;;;;;5.40;3.00;;;9.80;94.50;;;;;;4971916;28;20045;-74
2023/09/25 04:12:47;;;;;;;4.28;3.08;;;9.90;94.40;;;;;;4983545;28;20087;-73
2023/09/25 04:15:13;;;;;;;4.38;2.60;;;9.90;94.10;;;;;;4985925;28;20444;-73
2023/09/25 04:17:42;;;;;;;7.00;3.17;;;9.80;94.20;;;;;;4980285;28;20093;-73
2023/09/25 04:20:17;;;;;;;4.07;2.42;;;9.80;94.30;;;;;;4980013;28;20049;-73
2023/09/25 04:22:45;;;;;;;5.15;2.85;;;9.80;94.20;;;;;;4990965;28;20386;-72
2023/09/25 04:25:18;;;;;;;5.75;3.13;;;9.80;94.20;;;;;;4983716;28;20386;-73
2023/09/25 04:27:45;;;;;;;4.72;2.72;;;9.80;94.40;;;;;;4984487;28;20027;-68
2023/09/25 04:30:14;;;;;;;5.50;2.90;;;9.60;94.50;;;;;;4978100;28;20031;-67
2023/09/25 04:32:43;;;;;;;4.63;3.00;;;9.80;94.60;;;;;;4986236;28;20096;-68
2023/09/25 04:35:09;;;;;;;5.18;2.72;;;9.80;94.50;;;;;;4991356;28;20030;-71
2023/09/25 04:37:36;;;;;;;5.03;2.97;;;9.70;94.50;;;;;;4988443;28;20029;-70
2023/09/25 04:40:07;;;;;;;9.13;3.10;;;9.70;94.50;;;;;;4990555;28;20082;-67
2023/09/25 04:42:32;;;;;;;4.28;2.80;;;9.60;94.60;;;;;;4989320;28;20026;-67
2023/09/25 04:44:58;;;;;;;5.50;3.25;;;9.50;94.80;;;;;;4992081;28;20034;-69
2023/09/25 04:47:25;;;;;;;4.22;2.47;;;9.50;95.10;;;;;;4985099;28;20356;-68
2023/09/25 04:49:50;;;;;;;5.28;2.75;;;9.40;95.00;;;;;;4989158;28;20200;-67
2023/09/25 04:52:16;;;;;;;5.00;3.28;;;9.30;95.10;;;;;;4990506;28;20090;-69
2023/09/25 04:54:41;;;;;;;4.10;2.60;;;9.30;95.30;;;;;;4988745;28;20038;-69
2023/09/25 04:57:07;;;;;;;5.20;3.10;;;9.20;95.40;;;;;;4987480;28;20031;-70
2023/09/25 04:59:32;;;;;;;4.72;3.13;;;9.30;95.80;;;;;;4983590;28;20125;-67
2023/09/25 05:01:57;;;;;;;5.80;3.38;;;9.20;95.70;;;;;;4985665;28;20045;-71
2023/09/25 05:04:23;;;;;;;5.45;3.40;;;9.30;95.70;;;;;;4992672;28;20042;-68
2023/09/25 05:06:48;;;;;;;5.20;3.35;;;9.30;95.70;;;;;;4995655;28;20037;-68
2023/09/25 05:09:15;;;;;;;5.05;3.03;;;9.30;95.90;;;;;;5001770;28;20042;-68
2023/09/25 05:11:40;;;;;;;5.90;3.13;;;9.30;95.70;;;;;;4986883;28;20030;-69
2023/09/25 05:14:06;;;;;;;4.93;3.33;;;9.30;95.70;;;;;;4988283;28;20044;-69
2023/09/25 05:16:31;;;;;;;6.43;3.53;;;9.30;95.60;;;;;;4986021;28;20355;-68
2023/09/25 05:18:58;;;;;;;5.82;3.60;;;9.30;95.80;;;;;;4991282;28;20376;-68
2023/09/25 05:21:23;;;;;;;5.75;3.35;;;9.40;95.70;;;;;;4990826;28;20042;-68
2023/09/25 05:23:49;;;;;;;6.78;3.58;;;9.40;95.60;;;;;;4983854;28;20039;-67
2023/09/25 05:26:14;;;;;;;5.78;3.15;;;9.40;95.60;;;;;;4985720;28;20033;-68
2023/09/25 05:28:40;;;;;;;8.20;3.92;;;9.40;95.60;;;;;;4989226;28;20038;-68
2023/09/25 05:31:05;;;;;;;8.80;3.67;;;9.50;95.40;;;;;;4993417;28;20117;-68
2023/09/25 05:33:31;;;;;;;6.20;3.47;;;9.50;95.50;;;;;;4991393;28;20035;-69
2023/09/25 05:35:56;;;;;;;6.20;3.70;;;9.60;95.40;;;;;;4981216;28;20038;-68
2023/09/25 05:38:22;;;;;;;5.15;3.38;;;9.60;95.20;;;;;;4987947;28;20475;-67
2023/09/25 05:40:47;;;;;;;6.53;3.60;;;9.60;95.00;;;;;;4989739;28;20787;-69
2023/09/25 05:43:12;;;;;;;6.72;3.45;;;9.60;95.00;;;;;;4984509;28;20045;-70
2023/09/25 05:45:38;;;;;;;6.60;3.20;;;9.70;95.00;;;;;;4972427;28;20046;-69
2023/09/25 05:48:04;;;;;;;6.03;3.45;;;9.70;94.80;;;;;;4988515;28;20498;-68
2023/09/25 05:50:33;;;;;;;5.72;3.38;;;9.80;94.80;;;;;;4968811;28;20046;-68
2023/09/25 05:52:59;;;;;;;6.50;3.50;;;9.90;94.70;;;;;;4987807;28;20049;-68
2023/09/25 05:55:25;;;;;;;5.43;3.35;;;9.90;94.50;;;;;;4983594;28;20034;-68
2023/09/25 05:57:51;;;;;;;4.38;2.97;;;10.00;94.40;;;;;;4988065;28;20022;-68
2023/09/25 06:00:18;;;;;;;6.22;3.35;;;10.10;94.20;;;;;;4989074;28;20080;-70
2023/09/25 06:02:44;;;;;;;4.65;3.08;;;10.20;94.10;;;;;;4985246;28;20026;-67
2023/09/25 06:05:14;;;;;;;5.90;3.17;;;10.20;94.00;;;;;;4988945;28;20463;-68
2023/09/25 06:07:39;;;;;;;4.57;3.17;;;10.30;93.80;;;;;;4988796;28;20125;-67
2023/09/25 06:10:07;;;;;;;5.38;3.15;;;10.40;93.80;;;;;;4972478;28;20117;-68
2023/09/25 06:12:33;;;;;;;6.25;3.35;;;10.50;93.50;;;;;;4975757;28;20047;-68
2023/09/25 06:14:59;;;;;;;5.22;3.28;;;10.50;93.30;;;;;;4971471;28;20034;-68
2023/09/25 06:17:27;;;;;;;8.30;3.20;;;10.60;92.80;;;;;;4982616;28;20078;-68
2023/09/25 06:19:56;;;;;;;7.05;2.92;;;10.70;92.90;;;;;;4988440;28;20038;-68
2023/09/25 06:22:21;;;;;;;4.38;2.72;;;10.70;92.70;;;;;;4987434;28;20053;-69
2023/09/25 06:24:48;;;;;;;5.43;2.78;;;10.80;92.80;;;;;;4992572;28;20462;-69
2023/09/25 06:27:14;;;;;;;4.50;2.83;;;10.90;92.50;;;;;;4967462;28;20434;-72
2023/09/25 06:29:41;;;;;;;3.80;2.65;;;10.90;92.20;;;;;;4981693;28;20026;-68
2023/09/25 06:32:06;;;;;;;4.88;2.80;;;11.00;92.40;;;;;;4989136;28;20041;-68
2023/09/25 06:34:31;;;;;;;3.42;2.38;;;11.00;92.10;;;;;;4983499;28;20030;-69
2023/09/25 06:36:57;;;;;;;5.68;2.55;;;11.00;92.10;;;;;;4964876;28;20161;-69
2023/09/25 06:39:23;;;;;;;5.35;2.67;;;11.10;91.90;;;;;;4990668;28;20451;-68
2023/09/25 06:41:48;;;;;;;3.75;2.42;;;11.20;92.10;;;;;;4973733;28;20048;-68
2023/09/25 06:44:13;;;;;;;5.00;2.38;;;11.30;92.10;;;;;;4981785;28;20467;-68
2023/09/25 06:46:39;;;;;;;3.65;2.38;;;11.40;91.20;;;;;;4991950;28;20049;-68
2023/09/25 06:49:05;;;;;;;4.25;2.30;;;11.50;91.50;;;;;;4989352;28;20039;-69
2023/09/25 06:51:31;;;;;;;2.92;2.13;;;11.50;91.20;;;;;;5000682;28;20042;-68
2023/09/25 06:53:56;;;;;;;3.10;2.10;;;11.50;91.40;;;;;;4992120;28;20037;-68
2023/09/25 06:56:22;;;;;;;3.42;2.10;;;11.60;91.30;;;;;;4988120;28;20368;-69
2023/09/25 06:58:48;;;;;;;2.95;2.08;;;11.60;91.20;;;;;;4986260;28;20026;-70
2023/09/25 07:01:13;;;;;;;3.60;1.80;;;11.80;90.70;;;;;;4972668;28;20042;-68
2023/09/25 07:03:39;;;;;;;3.35;2.03;;;11.80;90.50;;;;;;4980280;28;20042;-69
2023/09/25 07:06:04;;;;;;;5.50;2.20;;;11.90;90.50;;;;;;4983302;28;20113;-68
2023/09/25 07:08:31;;;;;;;4.78;1.83;;;12.00;90.60;;;;;;4978755;28;20111;-68
2023/09/25 07:10:58;;;;;;;2.80;1.73;;;12.00;90.20;;;;;;4968227;28;20038;-68
2023/09/25 07:13:24;;;;;;;4.82;1.88;;;12.10;90.20;;;;;;4968331;28;20034;-69
2023/09/25 07:15:50;;;;;;;4.85;1.85;;;12.30;89.60;;;;;;4989096;28;20042;-68
2023/09/25 07:18:17;;;;;;;5.15;2.00;;;12.40;89.50;;;;;;4975980;28;20034;-69
2023/09/25 07:20:45;;;;;;;2.40;1.70;;;12.60;88.70;;;;;;4974473;28;20121;-68
2023/09/25 07:23:11;;;;;;;4.00;1.58;;;12.60;88.40;;;;;;4978085;28;20146;-68
2023/09/25 07:25:36;;;;;;;2.38;1.50;;;12.80;88.40;;;;;;4989169;28;20149;-68
2023/09/25 07:28:02;;;;;;;3.88;1.63;;;12.90;87.50;;;;;;4985866;28;20030;-68
2023/09/25 07:30:27;;;;;;;2.55;1.55;;;13.00;87.50;;;;;;4989831;28;20050;-69
2023/09/25 07:32:53;;;;;;;2.40;1.40;;;13.10;87.60;;;;;;4984651;28;20658;-68
2023/09/25 07:35:18;;;;;;;2.90;1.70;;;13.30;87.10;;;;;;4986895;28;20048;-68
2023/09/25 07:37:44;;;;;;;3.13;1.23;;;13.50;86.90;;;;;;4973284;28;20038;-68
2023/09/25 07:40:13;;;;;;;2.65;1.40;;;13.50;86.50;;;;;;4991684;28;20057;-69
2023/09/25 07:42:40;;;;;;;2.10;1.35;;;13.70;85.80;;;;;;4983910;28;20233;-68
2023/09/25 07:45:09;;;;;;;2.40;1.25;;;13.80;85.70;;;;;;4991214;28;20034;-68
2023/09/25 07:47:38;;;;;;;1.75;1.13;;;14.00;84.80;;;;;;4986426;28;20026;-69
2023/09/25 07:50:10;;;;;;;2.55;1.23;;;14.10;85.50;;;;;;4985803;28;20105;-68
2023/09/25 07:52:40;;;;;;;2.25;1.40;;;14.20;84.60;;;;;;4966860;28;20053;-69
2023/09/25 07:55:08;;;;;;;1.60;1.27;;;14.40;84.20;;;;;;4980273;28;20112;-68
2023/09/25 07:57:39;;;;;;;1.55;0.90;;;14.50;83.40;;;;;;4984190;28;20038;-68
2023/09/25 08:00:44;;;;;;;;;;;14.70;83.60;;;;;;4991216;28;20026;-68
2023/09/25 08:02:59;;;;;;;2.05;1.02;;;14.80;82.90;;;;;;4985151;28;19914;-71
2023/09/25 08:05:24;;;;;;;2.85;1.30;;;14.90;83.10;;;;;;4986259;28;20049;-68
2023/09/25 08:07:51;;;;;;;2.95;1.27;;;14.90;83.40;;;;;;4990523;28;20032;-68
2023/09/25 08:10:17;;;;;;;2.65;1.15;;;15.00;82.90;;;;;;4988051;28;20045;-68
2023/09/25 08:12:44;;;;;;;2.35;1.20;;;15.00;81.80;;;;;;4982294;28;20038;-68
2023/09/25 08:15:10;;;;;;;3.28;1.52;;;15.00;82.90;;;;;;4990424;28;20038;-69
2023/09/25 08:17:36;;;;;;;1.35;1.00;;;15.10;82.70;;;;;;4992731;28;20045;-68
2023/09/25 08:20:13;;;;;;;2.08;1.20;;;15.20;82.40;;;;;;4972529;28;20066;-68
2023/09/25 08:22:39;;;;;;;1.95;0.95;;;15.20;81.60;;;;;;4982048;28;20030;-69
2023/09/25 08:25:05;;;;;;;1.38;0.85;;;15.40;82.40;;;;;;4989443;28;20026;-68
2023/09/25 08:27:30;;;;;;;2.42;1.00;;;15.50;82.40;;;;;;4973888;28;20038;-68
2023/09/25 08:29:55;;;;;;;1.40;1.00;;;15.50;80.70;;;;;;4987384;28;20077;-69
2023/09/25 08:32:21;;;;;;;2.47;1.00;;;15.60;81.20;;;;;;4984676;28;20046;-68
2023/09/25 08:34:46;;;;;;;2.97;1.10;;;15.70;80.60;;;;;;4988280;28;20064;-68
2023/09/25 08:37:12;;;;;;;3.75;1.05;;;16.00;80.60;;;;;;4990072;28;20031;-68
2023/09/25 08:39:37;;;;;;;1.15;0.80;;;16.00;77.70;;;;;;4996648;28;20054;-69
2023/09/25 08:42:04;;;;;;;1.27;0.80;;;16.30;79.20;;;;;;4999656;28;20030;-68
2023/09/25 08:44:29;;;;;;;2.88;1.10;;;16.40;79.20;;;;;;4985991;28;20085;-68
2023/09/25 08:46:55;;;;;;;1.10;0.80;;;16.50;77.40;;;;;;4991255;28;20073;-69
2023/09/25 08:49:22;;;;;;;1.13;0.77;;;16.70;78.50;;;;;;4990883;28;20034;-68
2023/09/25 08:51:48;;;;;;;2.10;0.93;;;16.90;76.50;;;;;;4961096;28;20031;-69
2023/09/25 08:54:13;;;;;;;2.17;0.90;;;17.20;77.30;;;;;;4980700;28;20029;-68
2023/09/25 08:56:39;;;;;;;1.92;1.02;;;17.30;75.10;;;;;;4988228;28;20057;-68
2023/09/25 08:59:05;;;;;;;1.90;0.98;;;17.50;75.50;;;;;;4981579;28;20022;-69
2023/09/25 09:01:31;;;;;;;10.52;0.82;;;17.40;74.10;;;;;;4988265;28;20038;-69
2023/09/25 09:03:57;;;;;;;1.45;0.85;;;17.60;73.40;;;;;;4984812;28;20427;-69
2023/09/25 09:06:22;;;;;;;1.25;0.70;;;17.80;73.50;;;;;;4982336;28;20077;-70
2023/09/25 09:08:51;;;;;;;3.72;0.80;;;18.20;74.00;;;;;;4988862;28;20054;-71
2023/09/25 09:11:19;;;;;;;1.92;0.68;;;18.10;74.00;;;;;;4986144;28;20098;-71
2023/09/25 09:13:46;;;;;;;2.45;0.90;;;18.20;73.80;;;;;;4985452;28;20498;-68
2023/09/25 09:16:19;;;;;;;1.38;0.70;;;18.60;72.90;;;;;;4969639;28;20030;-70
2023/09/25 09:18:46;;;;;;;1.65;0.75;;;18.50;71.80;;;;;;4984417;28;20034;-69
2023/09/25 09:21:26;;;;;;;1.27;0.70;;;18.60;70.30;;;;;;4974358;28;20122;-69
2023/09/25 09:23:57;;;;;;;1.40;0.57;;;18.50;69.50;;;;;;4991930;28;20467;-70
2023/09/25 09:26:23;;;;;;;2.22;0.80;;;18.50;68.30;;;;;;4989254;28;20049;-69
2023/09/25 09:28:49;;;;;;;1.90;0.85;;;18.60;69.40;;;;;;4970293;28;20121;-70
2023/09/25 09:31:17;;;;;;;1.75;0.70;;;18.60;69.20;;;;;;4992534;28;20038;-69
2023/09/25 09:33:43;;;;;;;2.03;0.77;;;18.80;70.80;;;;;;4988889;28;20113;-68
2023/09/25 09:36:10;;;;;;;2.67;0.98;;;18.50;67.60;;;;;;4991520;28;20124;-69
2023/09/25 09:38:39;;;;;;;1.15;0.70;;;18.50;69.70;;;;;;4987110;28;20510;-68
2023/09/25 09:41:06;;;;;;;1.52;0.73;;;18.50;67.40;;;;;;4989908;28;20479;-69
2023/09/25 09:43:32;;;;;;;1.48;0.80;;;18.50;68.30;;;;;;4985295;28;20038;-68
2023/09/25 09:45:59;;;;;;;2.40;0.82;;;18.50;68.70;;;;;;4991296;28;20085;-69
2023/09/25 09:48:28;;;;;;;5.65;0.90;;;18.70;69.50;;;;;;4991832;28;20119;-71
2023/09/25 09:50:59;;;;;;;1.67;0.82;;;19.00;68.70;;;;;;4974129;28;20468;-69
2023/09/25 09:53:26;;;;;;;;;;;19.10;67.10;;;;;;4991188;28;20038;-70
2023/09/25 09:55:52;;;;;;;1.52;0.90;;;19.10;67.30;;;;;;4989515;28;19969;-68
2023/09/25 09:58:17;;;;;;;2.03;0.90;;;19.00;67.60;;;;;;4965998;28;20053;-70
2023/09/25 10:00:43;;;;;;;1.63;0.90;;;19.00;66.90;;;;;;4980161;28;20499;-69
2023/09/25 10:03:09;;;;;;;1.75;1.02;;;19.20;68.50;;;;;;4995907;28;20038;-69
2023/09/25 10:06:05;;;;;;;2.42;0.77;;;19.40;68.50;;;;;;4969438;28;20035;-68
2023/09/25 10:08:31;;;;;;;1.50;0.88;;;19.20;64.60;;;;;;4975933;28;20379;-69
2023/09/25 10:11:15;;;;;;;1.55;0.80;;;19.20;65.20;;;;;;4985289;28;20077;-68
2023/09/25 10:13:42;;;;;;;3.47;1.10;;;19.50;65.90;;;;;;4981697;28;20395;-69
2023/09/25 10:16:07;;;;;;;1.65;0.82;;;19.60;65.10;;;;;;4987002;28;20045;-70
2023/09/25 10:18:33;;;;;;;1.33;0.80;;;19.80;66.50;;;;;;4972584;28;20428;-68
2023/09/25 10:21:10;;;;;;;2.35;1.00;;;19.90;62.80;;;;;;4969686;28;20261;-69
2023/09/25 10:23:39;;;;;;;2.55;0.85;;;20.10;64.40;;;;;;4970857;28;20035;-69
2023/09/25 10:26:15;;;;;;;1.67;0.95;;;20.10;64.30;;;;;;4986303;28;20042;-69
2023/09/25 10:28:42;;;;;;;1.60;0.80;;;20.00;64.30;;;;;;4980683;28;20046;-68
2023/09/25 10:31:21;;;;;;;1.08;0.80;;;20.20;63.40;;;;;;4974185;28;20490;-70
2023/09/25 10:34:00;;;;;;;1.13;0.70;;;20.40;62.80;;;;;;4990992;28;20034;-71
2023/09/25 10:36:41;;;;;;;2.95;0.80;;;20.70;63.90;;;;;;4986271;28;20034;-69
2023/09/25 10:39:08;;;;;;;;;;;20.80;60.30;;;;;;5001694;28;20048;-68
2023/09/25 10:41:33;;;;;;;1.77;0.88;;;20.90;60.70;;;;;;4998618;28;19973;-70
2023/09/25 10:44:00;;;;;;;2.22;0.90;;;20.90;60.50;;;;;;4985549;28;20042;-69
2023/09/25 10:46:25;;;;;;;2.03;0.80;;;21.10;60.50;;;;;;4992295;28;20593;-68
2023/09/25 10:48:51;;;;;;;2.20;0.85;;;20.90;58.60;;;;;;4986324;28;20105;-69
2023/09/25 10:51:16;;;;;;;0.73;0.60;;;20.80;56.90;;;;;;4994140;28;20130;-69
2023/09/25 10:53:43;;;;;;;2.35;0.77;;;20.90;57.70;;;;;;4998349;28;20120;-69
2023/09/25 10:56:11;;;;;;;1.20;0.80;;;20.70;56.50;;;;;;4992232;28;20168;-69
2023/09/25 10:58:37;;;;;;;1.58;0.77;;;20.70;56.80;;;;;;4992379;28;20035;-70
2023/09/25 11:01:04;;;;;;;1.45;0.65;;;21.00;59.50;;;;;;4987351;28;20034;-69
2023/09/25 11:03:31;;;;;;;1.85;0.88;;;20.80;57.90;;;;;;4979566;28;20037;-70
2023/09/25 11:05:57;;;;;;;2.38;0.90;;;20.90;57.40;;;;;;4974206;28;20049;-68
2023/09/25 11:08:26;;;;;;;1.60;0.88;;;20.70;57.80;;;;;;4973059;28;20435;-69
2023/09/25 11:10:51;;;;;;;0.73;0.57;;;20.80;58.80;;;;;;4992566;28;20038;-68
2023/09/25 11:13:17;;;;;;;1.25;0.73;;;20.80;57.30;;;;;;4980024;28;20050;-69
2023/09/25 11:15:45;;;;;;;1.83;1.00;;;20.60;56.70;;;;;;4989291;28;20038;-73
2023/09/25 11:18:11;;;;;;;2.40;1.00;;;21.00;56.90;;;;;;4983528;28;20034;-70
2023/09/25 11:20:37;;;;;;;3.25;1.02;;;21.10;56.10;;;;;;4984768;28;20376;-71
2023/09/25 11:23:09;;;;;;;2.63;0.90;;;21.30;54.00;;;;;;4979726;28;20391;-69
2023/09/25 11:25:46;;;;;;;3.30;0.90;;;21.30;54.10;;;;;;4971359;28;20028;-69
2023/09/25 11:28:13;;;;;;;3.33;0.95;;;21.60;54.90;;;;;;4984855;28;20387;-69
2023/09/25 11:30:40;;;;;;;1.48;0.80;;;21.70;53.80;;;;;;4985725;28;20104;-68
2023/09/25 11:33:09;;;;;;;1.55;0.80;;;22.00;56.50;;;;;;4988592;28;20113;-69
2023/09/25 11:35:39;;;;;;;1.90;0.77;;;22.20;56.30;;;;;;4988869;28;20027;-69
2023/09/25 11:38:20;;;;;;;2.25;1.05;;;22.00;54.20;;;;;;4988485;28;20030;-70
2023/09/25 11:40:46;;;;;;;1.95;1.00;;;21.30;54.90;;;;;;4987344;28;20046;-70
2023/09/25 11:43:12;;;;;;;1.88;0.80;;;21.10;53.10;;;;;;4984242;28;20033;-69
2023/09/25 11:45:39;;;;;;;2.88;0.80;;;21.20;55.20;;;;;;4992043;28;20045;-69
2023/09/25 11:48:05;;;;;;;3.22;0.80;;;21.60;53.90;;;;;;4997489;28;20030;-69
2023/09/25 11:50:31;;;;;;;2.28;1.00;;;22.00;52.60;;;;;;4987959;28;20042;-69
2023/09/25 11:52:57;;;;;;;1.73;0.88;;;22.00;51.40;;;;;;4985761;28;20026;-69
2023/09/25 11:55:23;;;;;;;1.30;0.90;;;22.20;52.20;;;;;;4992035;28;20053;-69
2023/09/25 11:57:49;;;;;;;2.20;1.00;;;22.30;52.80;;;;;;4990977;28;20034;-70
2023/09/25 12:00:16;;;;;;;1.30;0.70;;;22.40;53.30;;;;;;4992502;28;20430;-69
2023/09/25 12:02:43;;;;;;;1.45;0.70;;;22.80;55.00;;;;;;4997838;28;20044;-70
2023/09/25 12:05:09;;;;;;;2.67;0.77;;;22.40;53.40;;;;;;4987728;28;20435;-69
2023/09/25 12:07:36;;;;;;;2.25;1.10;;;21.90;51.30;;;;;;4994039;28;20041;-69
2023/09/25 12:10:06;;;;;;;2.47;1.00;;;22.50;52.60;;;;;;4974483;28;20030;-70
2023/09/25 12:12:33;;;;;;;2.72;1.00;;;22.30;51.80;;;;;;4989474;28;20160;-70
2023/09/25 12:14:59;;;;;;;1.55;0.80;;;22.50;52.50;;;;;;4988477;28;20073;-69
2023/09/25 12:17:25;;;;;;;2.75;1.02;;;21.80;52.30;;;;;;4988455;28;20112;-69
2023/09/25 12:19:52;;;;;;;1.75;0.80;;;22.00;52.70;;;;;;4987872;28;20225;-69
2023/09/25 12:22:18;;;;;;;1.83;1.00;;;22.50;52.80;;;;;;4988579;28;20467;-71
2023/09/25 12:24:44;;;;;;;2.25;0.88;;;22.20;50.60;;;;;;4985583;28;20039;-70
2023/09/25 12:27:10;;;;;;;1.95;0.95;;;22.60;51.30;;;;;;4986102;28;20490;-72
2023/09/25 12:29:35;;;;;;;2.08;0.90;;;23.00;51.20;;;;;;4985304;28;20030;-69
2023/09/25 12:32:01;;;;;;;4.28;1.00;;;23.00;50.80;;;;;;4984388;28;20105;-69
2023/09/25 12:34:26;;;;;;;1.48;0.60;;;22.80;49.10;;;;;;4986080;28;20046;-69
2023/09/25 12:36:52;;;;;;;1.63;0.88;;;23.00;49.10;;;;;;4990155;28;20026;-69
2023/09/25 12:39:17;;;;;;;2.25;0.95;;;23.50;49.40;;;;;;4988354;28;20049;-70
2023/09/25 12:41:43;;;;;;;1.17;0.77;;;24.00;49.30;;;;;;4988473;28;20038;-69
2023/09/25 12:44:09;;;;;;;1.75;0.98;;;23.60;48.50;;;;;;4982427;28;20044;-69
2023/09/25 12:46:35;;;;;;;2.15;0.90;;;23.40;48.00;;;;;;4987795;28;20041;-70
2023/09/25 12:49:00;;;;;;;1.65;0.85;;;23.70;49.10;;;;;;4988661;28;20061;-69